createdAt,value
2019-03-17T00:03:23.231Z,99.90
2019-03-17T00:06:47.092Z,99.90
2019-03-17T00:10:15.456Z,99.90
2019-03-17T00:13:40.771Z,99.90
2019-03-17T00:17:04.669Z,99.90
2019-03-17T00:20:30.438Z,99.90
2019-03-17T00:23:56.310Z,99.90
2019-03-17T00:27:20.344Z,99.90
2019-03-17T00:30:46.012Z,99.90
2019-03-17T00:34:10.083Z,99.90
2019-03-17T00:40:58.929Z,99.90
2019-03-17T00:44:22.839Z,99.90
2019-03-17T00:47:47.099Z,99.90
2019-03-17T00:51:11.283Z,99.90
2019-03-17T00:54:35.166Z,99.90
2019-03-17T00:57:59.833Z,99.90
2019-03-17T01:01:23.787Z,99.90
2019-03-17T01:04:56.206Z,99.90
2019-03-17T01:08:17.030Z,99.90
2019-03-17T01:11:43.989Z,99.90
2019-03-17T01:15:11.894Z,99.90
2019-03-17T01:18:35.816Z,99.90
2019-03-17T01:21:59.826Z,99.90
2019-03-17T01:25:31.118Z,99.90
2019-03-17T01:28:55.166Z,99.90
2019-03-17T01:32:20.682Z,99.90
2019-03-17T01:35:47.851Z,99.90
2019-03-17T01:39:14.548Z,99.90
2019-03-17T01:42:46.093Z,99.90
2019-03-17T01:46:09.591Z,99.90
2019-03-17T01:49:34.800Z,99.90
2019-03-17T01:53:03.236Z,99.90
2019-03-17T01:56:28.810Z,99.90
2019-03-17T01:59:56.789Z,99.90
2019-03-17T02:03:20.895Z,99.90
2019-03-17T02:06:45.677Z,99.90
2019-03-17T02:10:12.541Z,99.90
2019-03-17T02:13:37.835Z,99.90
2019-03-17T02:17:02.563Z,99.90
2019-03-17T02:20:26.531Z,99.90
2019-03-17T02:23:53.206Z,99.90
2019-03-17T02:27:18.656Z,99.90
2019-03-17T02:30:42.906Z,99.90
2019-03-17T02:34:11.651Z,99.90
2019-03-17T02:37:36.559Z,99.90
2019-03-17T02:41:00.467Z,99.90
2019-03-17T02:44:28.716Z,99.90
2019-03-17T02:47:55.616Z,99.90
2019-03-17T02:51:19.435Z,99.90
2019-03-17T02:54:43.358Z,99.90
2019-03-17T02:58:08.886Z,99.90
2019-03-17T03:01:32.790Z,99.90
2019-03-17T03:04:56.630Z,99.90
2019-03-17T03:08:23.211Z,99.90
2019-03-17T03:11:48.725Z,99.90
2019-03-17T03:15:12.513Z,99.90
2019-03-17T03:18:40.829Z,99.90
2019-03-17T03:22:04.631Z,99.90
2019-03-17T03:25:28.553Z,99.90
2019-03-17T03:28:52.434Z,99.90
2019-03-17T03:32:19.908Z,99.90
2019-03-17T03:35:43.887Z,99.90
2019-03-17T03:39:07.795Z,99.90
2019-03-17T03:42:31.725Z,99.90
2019-03-17T03:45:57.248Z,99.90
2019-03-17T03:49:24.215Z,99.90
2019-03-17T03:52:50.977Z,99.90
2019-03-17T03:56:14.926Z,99.90
2019-03-17T03:59:38.639Z,99.90
2019-03-17T04:03:02.587Z,99.90
2019-03-17T04:06:27.247Z,99.90
2019-03-17T04:09:51.574Z,99.90
2019-03-17T04:13:15.341Z,99.90
2019-03-17T04:16:38.965Z,99.90
2019-03-17T04:20:02.837Z,99.90
2019-03-17T04:23:26.536Z,99.90
2019-03-17T04:26:50.387Z,99.90
2019-03-17T04:30:14.275Z,99.90
2019-03-17T04:33:38.118Z,99.90
2019-03-17T04:37:02.097Z,99.90
2019-03-17T04:40:26.010Z,99.90
2019-03-17T04:43:49.893Z,99.90
2019-03-17T04:47:13.739Z,99.90
2019-03-17T04:50:37.550Z,99.90
2019-03-17T04:54:01.375Z,99.90
2019-03-17T04:57:25.277Z,99.90
2019-03-17T05:00:49.193Z,99.90
2019-03-17T05:04:12.943Z,99.90
2019-03-17T05:07:36.716Z,99.90
2019-03-17T05:11:00.621Z,99.90
2019-03-17T05:14:24.309Z,99.90
2019-03-17T05:17:48.286Z,99.90
2019-03-17T05:21:12.030Z,99.90
2019-03-17T05:24:35.818Z,99.90
2019-03-17T05:27:59.620Z,99.90
2019-03-17T05:31:23.605Z,99.90
2019-03-17T05:34:47.350Z,99.90
2019-03-17T05:38:11.436Z,99.90
2019-03-17T05:41:35.225Z,99.90
2019-03-17T05:44:59.115Z,99.90
2019-03-17T05:48:22.993Z,99.90
2019-03-17T05:51:46.774Z,99.90
2019-03-17T05:55:10.899Z,99.90
2019-03-17T05:58:34.721Z,99.90
2019-03-17T06:01:58.595Z,99.90
2019-03-17T06:05:22.375Z,99.90
2019-03-17T06:08:46.509Z,99.90
2019-03-17T06:12:10.277Z,99.90
2019-03-17T06:15:34.235Z,99.90
2019-03-17T06:18:58.095Z,99.90
2019-03-17T06:22:21.819Z,99.90
2019-03-17T06:25:46.722Z,99.90
2019-03-17T06:29:10.584Z,99.90
2019-03-17T06:32:34.594Z,99.90
2019-03-17T06:35:58.443Z,99.90
2019-03-17T06:39:22.208Z,99.90
2019-03-17T06:42:46.315Z,99.90
2019-03-17T06:46:10.058Z,99.90
2019-03-17T06:49:33.856Z,99.90
2019-03-17T06:52:57.613Z,99.90
2019-03-17T06:56:21.419Z,99.90
2019-03-17T06:59:45.204Z,99.90
2019-03-17T07:03:09.850Z,99.90
2019-03-17T07:06:33.672Z,99.90
2019-03-17T07:09:57.575Z,99.90
2019-03-17T07:13:21.320Z,93.70
2019-03-17T07:16:45.116Z,83.10
2019-03-17T07:20:13.599Z,80.90
2019-03-17T07:23:38.124Z,72.00
2019-03-17T07:27:01.867Z,65.30
2019-03-17T07:30:25.743Z,62.80
2019-03-17T07:33:49.626Z,77.10
2019-03-17T07:37:13.608Z,88.70
2019-03-17T07:40:37.521Z,99.90
2019-03-17T07:44:01.400Z,99.90
2019-03-17T07:47:25.596Z,99.90
2019-03-17T07:50:49.617Z,99.90
2019-03-17T07:54:13.665Z,99.90
2019-03-17T07:57:37.649Z,88.90
2019-03-17T08:01:01.532Z,98.50
2019-03-17T08:04:25.455Z,99.90
2019-03-17T08:07:49.270Z,99.90
2019-03-17T08:11:13.087Z,99.90
2019-03-17T08:14:36.848Z,99.30
2019-03-17T08:18:00.638Z,93.00
2019-03-17T08:21:24.608Z,94.00
2019-03-17T08:24:48.506Z,96.30
2019-03-17T08:28:12.413Z,99.90
2019-03-17T08:31:36.139Z,99.90
2019-03-17T08:35:00.033Z,99.90
2019-03-17T08:38:23.868Z,97.30
2019-03-17T08:41:47.609Z,95.60
2019-03-17T08:45:12.821Z,96.80
2019-03-17T08:48:36.757Z,99.90
2019-03-17T08:52:00.630Z,99.90
2019-03-17T08:55:24.545Z,99.90
2019-03-17T08:58:48.898Z,99.90
2019-03-17T09:02:12.743Z,94.20
2019-03-17T09:05:41.694Z,93.90
2019-03-17T09:09:07.787Z,91.00
2019-03-17T09:12:32.530Z,87.40
2019-03-17T09:15:56.351Z,89.10
2019-03-17T09:19:20.609Z,89.50
2019-03-17T09:22:44.704Z,94.40
2019-03-17T09:26:08.485Z,93.90
2019-03-17T09:29:36.043Z,96.30
2019-03-17T09:33:02.381Z,90.60
2019-03-17T09:36:41.001Z,77.40
2019-03-17T09:40:05.876Z,66.30
2019-03-17T09:43:29.738Z,59.00
2019-03-17T09:46:53.501Z,60.80
2019-03-17T09:50:21.914Z,60.00
2019-03-17T09:53:50.063Z,56.00
2019-03-17T09:57:13.828Z,53.20
2019-03-17T10:00:38.971Z,51.40
2019-03-17T10:04:03.343Z,50.90
2019-03-17T10:07:28.789Z,53.20
2019-03-17T10:10:56.990Z,58.10
2019-03-17T10:14:20.814Z,59.40
2019-03-17T10:17:44.684Z,57.30
2019-03-17T10:21:08.909Z,59.30
2019-03-17T10:24:32.756Z,59.50
2019-03-17T10:27:56.645Z,54.10
2019-03-17T10:31:20.484Z,51.70
2019-03-17T10:34:44.407Z,48.10
2019-03-17T10:38:08.392Z,46.90
2019-03-17T10:41:32.365Z,44.00
2019-03-17T10:44:56.244Z,44.10
2019-03-17T10:48:22.703Z,45.30
2019-03-17T10:51:46.475Z,46.50
2019-03-17T10:55:11.082Z,43.10
2019-03-17T10:58:35.059Z,43.90
2019-03-17T11:01:58.801Z,43.80
2019-03-17T11:05:22.796Z,43.80
2019-03-17T11:08:46.956Z,41.20
2019-03-17T11:12:10.878Z,40.70
2019-03-17T11:15:35.281Z,41.30
2019-03-17T11:18:59.140Z,41.90
2019-03-17T11:22:23.009Z,43.60
2019-03-17T11:25:46.888Z,40.10
2019-03-17T11:29:10.686Z,40.70
2019-03-17T11:32:34.779Z,39.50
2019-03-17T11:35:58.637Z,40.80
2019-03-17T11:39:22.541Z,38.90
2019-03-17T11:42:49.541Z,37.40
2019-03-17T11:46:12.136Z,37.70
2019-03-17T11:49:35.993Z,39.20
2019-03-17T11:52:59.977Z,38.30
2019-03-17T11:56:23.790Z,38.20
2019-03-17T11:59:50.326Z,39.50
2019-03-17T12:03:14.275Z,36.90
2019-03-17T12:06:38.654Z,39.40
2019-03-17T12:10:02.708Z,37.80
2019-03-17T12:13:26.683Z,36.00
2019-03-17T12:16:50.429Z,36.00
2019-03-17T12:20:15.475Z,36.70
2019-03-17T12:23:39.246Z,37.20
2019-03-17T12:27:03.105Z,39.20
2019-03-17T12:30:27.804Z,36.00
2019-03-17T12:33:51.911Z,36.40
2019-03-17T12:37:15.804Z,37.00
2019-03-17T12:40:41.836Z,37.40
2019-03-17T12:44:05.949Z,40.00
2019-03-17T12:47:29.908Z,39.10
2019-03-17T12:50:54.491Z,41.40
2019-03-17T12:54:19.227Z,40.90
2019-03-17T12:57:43.681Z,41.20
2019-03-17T13:01:20.782Z,42.30
2019-03-17T13:04:46.139Z,41.60
2019-03-17T13:08:10.097Z,39.70
2019-03-17T13:11:34.038Z,40.80
2019-03-17T13:14:58.019Z,41.20
2019-03-17T13:18:22.033Z,39.60
2019-03-17T13:21:45.877Z,38.10
2019-03-17T13:25:11.029Z,35.60
2019-03-17T13:28:35.201Z,34.90
2019-03-17T13:31:59.286Z,35.50
2019-03-17T13:35:23.171Z,35.60
2019-03-17T13:38:47.051Z,34.30
2019-03-17T13:42:11.936Z,34.20
2019-03-17T13:45:35.904Z,37.10
2019-03-17T13:49:00.127Z,35.90
2019-03-17T13:52:24.103Z,34.80
2019-03-17T13:55:48.922Z,35.20
2019-03-17T13:59:12.706Z,35.70
2019-03-17T14:02:36.559Z,34.70
2019-03-17T14:06:00.769Z,33.00
2019-03-17T14:09:24.607Z,34.10
2019-03-17T14:12:48.405Z,33.50
2019-03-17T14:16:15.535Z,34.20
2019-03-17T14:19:38.195Z,35.00
2019-03-17T14:23:02.124Z,36.40
2019-03-17T14:26:26.397Z,32.70
2019-03-17T14:29:50.891Z,32.70
2019-03-17T14:33:14.952Z,32.10
2019-03-17T14:36:38.803Z,33.00
2019-03-17T14:40:02.610Z,34.40
2019-03-17T14:43:27.515Z,34.80
2019-03-17T14:46:51.245Z,33.20
2019-03-17T14:50:17.610Z,32.70
2019-03-17T14:53:41.510Z,32.90
2019-03-17T14:57:05.423Z,32.80
2019-03-17T15:00:29.172Z,34.20
2019-03-17T15:03:53.082Z,35.80
2019-03-17T15:07:16.923Z,32.70
2019-03-17T15:10:41.047Z,36.70
2019-03-17T15:14:04.925Z,35.30
2019-03-17T15:17:28.749Z,35.20
2019-03-17T15:20:52.551Z,35.40
2019-03-17T15:24:16.365Z,37.50
2019-03-17T15:27:41.795Z,36.90
2019-03-17T15:31:11.621Z,36.90
2019-03-17T15:34:31.725Z,38.00
2019-03-17T15:37:55.576Z,37.70
2019-03-17T15:41:20.489Z,38.80
2019-03-17T15:44:44.368Z,37.60
2019-03-17T15:48:08.316Z,37.60
2019-03-17T15:51:32.541Z,38.10
2019-03-17T15:54:56.423Z,37.60
2019-03-17T15:58:20.503Z,38.20
2019-03-17T16:01:44.223Z,38.80
2019-03-17T16:05:08.769Z,38.70
2019-03-17T16:08:32.628Z,39.60
2019-03-17T16:11:56.713Z,39.80
2019-03-17T16:15:20.562Z,39.70
2019-03-17T16:18:44.408Z,40.10
2019-03-17T16:22:08.124Z,40.00
2019-03-17T16:25:39.748Z,40.00
2019-03-17T16:29:04.428Z,40.70
2019-03-17T16:32:28.183Z,41.10
2019-03-17T16:35:52.100Z,42.00
2019-03-17T16:39:19.508Z,42.00
2019-03-17T16:42:43.262Z,43.20
2019-03-17T16:46:07.228Z,43.50
2019-03-17T16:49:31.369Z,44.30
2019-03-17T16:52:55.246Z,44.00
2019-03-17T16:56:19.168Z,44.10
2019-03-17T16:59:42.941Z,44.90
2019-03-17T17:03:06.755Z,44.90
2019-03-17T17:06:30.684Z,45.40
2019-03-17T17:09:54.501Z,44.10
2019-03-17T17:13:18.247Z,44.90
2019-03-17T17:16:42.178Z,44.60
2019-03-17T17:20:09.078Z,45.30
2019-03-17T17:23:32.981Z,45.70
2019-03-17T17:26:56.845Z,45.90
2019-03-17T17:30:21.366Z,45.60
2019-03-17T17:33:45.213Z,45.50
2019-03-17T17:37:09.083Z,46.20
2019-03-17T17:40:32.883Z,46.30
2019-03-17T17:43:56.787Z,46.30
2019-03-17T17:47:20.676Z,46.90
2019-03-17T17:50:44.457Z,45.90
2019-03-17T17:54:10.362Z,46.30
2019-03-17T17:57:34.259Z,46.20
2019-03-17T18:00:58.168Z,46.40
2019-03-17T18:04:22.014Z,47.30
2019-03-17T18:07:45.905Z,47.50
2019-03-17T18:11:09.784Z,48.00
2019-03-17T18:14:34.594Z,48.20
2019-03-17T18:17:58.475Z,47.70
2019-03-17T18:21:22.416Z,47.70
2019-03-17T18:24:46.314Z,47.80
2019-03-17T18:28:10.308Z,48.30
2019-03-17T18:31:34.203Z,48.70
2019-03-17T18:34:58.184Z,49.20
2019-03-17T18:38:22.671Z,49.40
2019-03-17T18:41:46.558Z,49.20
2019-03-17T18:45:13.378Z,49.10
2019-03-17T18:48:37.691Z,49.00
2019-03-17T18:52:01.740Z,49.50
2019-03-17T18:55:25.675Z,49.00
2019-03-17T18:58:49.739Z,50.40
2019-03-17T19:02:16.058Z,50.80
2019-03-17T19:05:39.943Z,54.00
2019-03-17T19:09:04.143Z,56.10
2019-03-17T19:12:28.033Z,56.30
2019-03-17T19:15:52.022Z,57.10
2019-03-17T19:19:16.523Z,57.30
2019-03-17T19:22:40.811Z,56.50
2019-03-17T19:26:04.993Z,57.60
2019-03-17T19:29:28.872Z,60.10
2019-03-17T19:32:52.790Z,62.30
2019-03-17T19:36:16.749Z,70.00
2019-03-17T19:39:40.686Z,68.60
2019-03-17T19:43:04.601Z,64.00
2019-03-17T19:46:28.456Z,62.30
2019-03-17T19:49:52.397Z,60.70
2019-03-17T19:53:16.483Z,60.90
2019-03-17T19:56:40.346Z,64.10
2019-03-17T20:00:09.468Z,66.30
2019-03-17T20:03:33.375Z,69.40
2019-03-17T20:06:57.805Z,73.60
2019-03-17T20:10:31.204Z,78.20
2019-03-17T20:13:55.108Z,82.00
2019-03-17T20:17:19.796Z,83.70
2019-03-17T20:20:43.679Z,81.70
2019-03-17T20:24:07.664Z,87.50
2019-03-17T20:27:31.644Z,85.80
2019-03-17T20:30:55.571Z,86.20
2019-03-17T20:34:19.504Z,86.30
2019-03-17T20:37:46.053Z,83.00
2019-03-17T20:41:11.536Z,84.30
2019-03-17T20:44:35.448Z,85.00
2019-03-17T20:47:59.568Z,86.50
2019-03-17T20:51:23.419Z,90.20
2019-03-17T20:54:47.283Z,87.80
2019-03-17T20:58:11.213Z,90.30
2019-03-17T21:01:35.155Z,91.10
2019-03-17T21:04:59.142Z,90.50
2019-03-17T21:08:24.246Z,89.00
2019-03-17T21:11:48.717Z,89.80
2019-03-17T21:15:16.426Z,91.00
2019-03-17T21:18:40.347Z,91.80
2019-03-17T21:22:04.402Z,94.60
2019-03-17T21:25:28.195Z,96.70
2019-03-17T21:28:52.704Z,97.30
2019-03-17T21:32:17.234Z,97.20
2019-03-17T21:35:41.263Z,98.50
2019-03-17T21:39:06.740Z,98.80
2019-03-17T21:42:30.552Z,99.30
2019-03-17T21:45:54.408Z,99.90
2019-03-17T21:49:18.221Z,99.90
2019-03-17T21:52:42.105Z,99.90
2019-03-17T21:56:06.017Z,99.90
2019-03-17T21:59:29.718Z,99.90
2019-03-17T22:02:54.994Z,99.90
2019-03-17T22:06:19.113Z,99.90
2019-03-17T22:09:42.843Z,99.90
2019-03-17T22:13:07.166Z,99.90
2019-03-17T22:16:31.405Z,99.90
2019-03-17T22:19:55.238Z,99.90
2019-03-17T22:23:19.065Z,99.90
2019-03-17T22:26:42.962Z,99.90
2019-03-17T22:30:19.165Z,99.90
2019-03-17T22:33:43.097Z,99.90
2019-03-17T22:37:07.272Z,99.90
2019-03-17T22:40:30.930Z,99.90
2019-03-17T22:43:54.829Z,99.90
2019-03-17T22:47:18.924Z,99.90
2019-03-17T22:50:42.695Z,99.90
2019-03-17T22:54:06.487Z,99.90
2019-03-17T22:57:30.279Z,99.30
2019-03-17T23:00:54.309Z,97.90
2019-03-17T23:04:18.115Z,97.70
2019-03-17T23:07:41.993Z,95.70
2019-03-17T23:11:05.898Z,99.90
2019-03-17T23:14:36.681Z,99.90
2019-03-17T23:17:55.008Z,99.90
2019-03-17T23:21:19.018Z,99.90
2019-03-17T23:24:42.733Z,99.90
2019-03-17T23:28:06.679Z,99.90
2019-03-17T23:31:30.755Z,99.90
2019-03-17T23:34:54.656Z,99.90
2019-03-17T23:38:18.537Z,99.90
2019-03-17T23:41:42.285Z,99.90
2019-03-17T23:45:08.032Z,99.90
2019-03-17T23:48:31.898Z,99.90
2019-03-17T23:51:55.621Z,99.90
2019-03-17T23:55:19.515Z,99.90
2019-03-17T23:58:43.242Z,99.90
